Главная страница
METAR-TAF:

METAR-TAF

Аэропорты :

Дакар, Сенегал

широта: 14-44N, долгота: 017-30W, высота над уровнем моря: 27 м

Текущие метеонаблюдения

Эта сводка был подготовлена 47 минут назад, в 11:00 UTC
Ветер 12 Узел от западный
Температура 25°C
Влажность 74%
Давление 1015 hPa
Видимость 10 км и более
Рассеянная облачность на высоте 1300 фута

METAR: GOOY 211100Z 28012KT 9999 BKN013 25/20 Q1015

Время: 11:47 (11:47 UTC)

Прогноз

Эта сводка был подготовлена 17 минут назад, в 11:30 UTC
Прогноз действительный с 21-го 12 UTC до 22-го 18 UTC
Ветер 12 Узел от западный
Видимость 10 км и более
Рассеянная облачность на высоте 1300 фута

TAF: GOOY 211130Z 2112/2218 27012KT 9999 BKN013

Метеонаблюдения и прогнозы для более 4000 аэропортов (сводки METAR и TAF).

Имеющиеся станции представлены на карте желтыми и красными точками.

Чтобы увидеть название станции, наведите на нее мышь.

Затем щелкните, чтобы увидеть метеонаблюдения и метеопрогнозы.

Управление картой: чтобы увеличить масштаб, щелкните зеленые кнопки с черным крестиком; чтобы уменьшить масштаб, щелкните зеленую кнопку с тире; для просмотра соседних карт щелкайте зеленые стрелки.


METAR-TAF: